sensor_id;sensor_type;location;lat;lon;timestamp;P1;durP1;ratioP1;P2;durP2;ratioP2
26690;SDS011;14307;51.718;8.938;2023-02-28T00:00:35;22.35;;;20.85;;
26690;SDS011;14307;51.718;8.938;2023-02-28T00:03:03;21.95;;;20.45;;
26690;SDS011;14307;51.718;8.938;2023-02-28T00:05:30;22.75;;;20.95;;
26690;SDS011;14307;51.718;8.938;2023-02-28T00:07:57;22.40;;;20.70;;
26690;SDS011;14307;51.718;8.938;2023-02-28T00:10:25;21.88;;;20.25;;
26690;SDS011;14307;51.718;8.938;2023-02-28T00:12:54;23.15;;;21.35;;
26690;SDS011;14307;51.718;8.938;2023-02-28T00:15:23;22.05;;;20.55;;
26690;SDS011;14307;51.718;8.938;2023-02-28T00:17:50;22.63;;;20.83;;
26690;SDS011;14307;51.718;8.938;2023-02-28T00:20:17;21.85;;;20.25;;
26690;SDS011;14307;51.718;8.938;2023-02-28T00:22:45;22.50;;;20.80;;
26690;SDS011;14307;51.718;8.938;2023-02-28T00:25:14;22.20;;;20.70;;
26690;SDS011;14307;51.718;8.938;2023-02-28T00:27:44;22.52;;;20.92;;
26690;SDS011;14307;51.718;8.938;2023-02-28T00:30:12;22.63;;;20.92;;
26690;SDS011;14307;51.718;8.938;2023-02-28T00:32:41;22.60;;;20.98;;
26690;SDS011;14307;51.718;8.938;2023-02-28T00:35:08;22.38;;;20.88;;
26690;SDS011;14307;51.718;8.938;2023-02-28T00:37:36;22.65;;;21.05;;
26690;SDS011;14307;51.718;8.938;2023-02-28T00:40:04;22.60;;;21.00;;
26690;SDS011;14307;51.718;8.938;2023-02-28T00:42:32;22.45;;;20.88;;
26690;SDS011;14307;51.718;8.938;2023-02-28T00:45:00;22.15;;;20.65;;
26690;SDS011;14307;51.718;8.938;2023-02-28T00:47:27;22.17;;;20.67;;
26690;SDS011;14307;51.718;8.938;2023-02-28T00:49:54;23.83;;;21.83;;
26690;SDS011;14307;51.718;8.938;2023-02-28T00:52:21;22.48;;;20.88;;
26690;SDS011;14307;51.718;8.938;2023-02-28T00:54:47;22.15;;;20.65;;
26690;SDS011;14307;51.718;8.938;2023-02-28T00:57:14;23.17;;;21.40;;
26690;SDS011;14307;51.718;8.938;2023-02-28T00:59:41;22.90;;;21.25;;
26690;SDS011;14307;51.718;8.938;2023-02-28T01:02:08;22.83;;;21.02;;
26690;SDS011;14307;51.718;8.938;2023-02-28T01:04:35;22.80;;;21.08;;
26690;SDS011;14307;51.718;8.938;2023-02-28T01:07:02;22.75;;;21.08;;
26690;SDS011;14307;51.718;8.938;2023-02-28T01:09:29;22.58;;;20.75;;
26690;SDS011;14307;51.718;8.938;2023-02-28T01:11:57;23.95;;;22.05;;
26690;SDS011;14307;51.718;8.938;2023-02-28T01:14:24;22.23;;;20.65;;
26690;SDS011;14307;51.718;8.938;2023-02-28T01:16:51;22.42;;;20.83;;
26690;SDS011;14307;51.718;8.938;2023-02-28T01:19:18;23.17;;;21.58;;
26690;SDS011;14307;51.718;8.938;2023-02-28T01:21:45;22.63;;;21.05;;
26690;SDS011;14307;51.718;8.938;2023-02-28T01:24:12;22.60;;;20.90;;
26690;SDS011;14307;51.718;8.938;2023-02-28T01:26:38;22.80;;;21.20;;
26690;SDS011;14307;51.718;8.938;2023-02-28T01:29:06;22.50;;;20.90;;
26690;SDS011;14307;51.718;8.938;2023-02-28T01:31:33;22.15;;;20.70;;
26690;SDS011;14307;51.718;8.938;2023-02-28T01:34:00;22.45;;;20.85;;
26690;SDS011;14307;51.718;8.938;2023-02-28T01:36:29;22.30;;;20.80;;
26690;SDS011;14307;51.718;8.938;2023-02-28T01:38:55;22.38;;;20.77;;
26690;SDS011;14307;51.718;8.938;2023-02-28T01:41:23;22.83;;;21.27;;
26690;SDS011;14307;51.718;8.938;2023-02-28T01:43:55;23.45;;;21.85;;
26690;SDS011;14307;51.718;8.938;2023-02-28T01:46:22;22.02;;;20.63;;
26690;SDS011;14307;51.718;8.938;2023-02-28T01:48:51;22.52;;;21.05;;
26690;SDS011;14307;51.718;8.938;2023-02-28T01:51:27;22.38;;;20.67;;
26690;SDS011;14307;51.718;8.938;2023-02-28T01:54:25;23.02;;;21.33;;
26690;SDS011;14307;51.718;8.938;2023-02-28T01:59:37;22.60;;;21.00;;
26690;SDS011;14307;51.718;8.938;2023-02-28T02:02:15;22.80;;;21.25;;
26690;SDS011;14307;51.718;8.938;2023-02-28T02:07:24;23.08;;;21.58;;
26690;SDS011;14307;51.718;8.938;2023-02-28T02:09:59;22.73;;;21.13;;
26690;SDS011;14307;51.718;8.938;2023-02-28T02:12:37;22.60;;;21.10;;
26690;SDS011;14307;51.718;8.938;2023-02-28T02:15:40;22.77;;;21.05;;
26690;SDS011;14307;51.718;8.938;2023-02-28T02:18:17;22.45;;;20.95;;
26690;SDS011;14307;51.718;8.938;2023-02-28T02:26:42;22.65;;;20.95;;
26690;SDS011;14307;51.718;8.938;2023-02-28T02:29:45;22.52;;;21.02;;
26690;SDS011;14307;51.718;8.938;2023-02-28T02:35:29;22.67;;;21.08;;
26690;SDS011;14307;51.718;8.938;2023-02-28T02:41:18;22.80;;;21.20;;
26690;SDS011;14307;51.718;8.938;2023-02-28T02:43:52;23.00;;;21.40;;
26690;SDS011;14307;51.718;8.938;2023-02-28T02:46:48;23.08;;;21.38;;
26690;SDS011;14307;51.718;8.938;2023-02-28T02:49:21;23.25;;;21.42;;
26690;SDS011;14307;51.718;8.938;2023-02-28T02:51:54;22.92;;;21.42;;
26690;SDS011;14307;51.718;8.938;2023-02-28T02:54:23;23.15;;;21.42;;
26690;SDS011;14307;51.718;8.938;2023-02-28T02:56:57;23.13;;;21.25;;
26690;SDS011;14307;51.718;8.938;2023-02-28T02:59:27;22.95;;;21.45;;
26690;SDS011;14307;51.718;8.938;2023-02-28T03:01:57;23.15;;;21.45;;
26690;SDS011;14307;51.718;8.938;2023-02-28T03:04:26;23.00;;;21.20;;
26690;SDS011;14307;51.718;8.938;2023-02-28T03:06:57;22.73;;;21.13;;
26690;SDS011;14307;51.718;8.938;2023-02-28T03:09:25;22.38;;;20.88;;
26690;SDS011;14307;51.718;8.938;2023-02-28T03:11:52;22.70;;;21.05;;
26690;SDS011;14307;51.718;8.938;2023-02-28T03:14:42;22.50;;;21.00;;
26690;SDS011;14307;51.718;8.938;2023-02-28T03:17:21;22.48;;;20.90;;
26690;SDS011;14307;51.718;8.938;2023-02-28T03:23:07;22.48;;;20.98;;
26690;SDS011;14307;51.718;8.938;2023-02-28T03:26:16;22.73;;;21.00;;
26690;SDS011;14307;51.718;8.938;2023-02-28T03:28:45;23.08;;;21.27;;
26690;SDS011;14307;51.718;8.938;2023-02-28T03:31:32;22.35;;;20.75;;
26690;SDS011;14307;51.718;8.938;2023-02-28T03:34:12;22.70;;;21.10;;
26690;SDS011;14307;51.718;8.938;2023-02-28T03:36:48;22.90;;;21.05;;
26690;SDS011;14307;51.718;8.938;2023-02-28T03:39:23;22.83;;;21.23;;
26690;SDS011;14307;51.718;8.938;2023-02-28T03:42:12;22.67;;;21.17;;
26690;SDS011;14307;51.718;8.938;2023-02-28T03:44:46;22.33;;;20.92;;
26690;SDS011;14307;51.718;8.938;2023-02-28T03:47:25;22.98;;;21.33;;
26690;SDS011;14307;51.718;8.938;2023-02-28T03:50:01;22.77;;;21.08;;
26690;SDS011;14307;51.718;8.938;2023-02-28T03:52:34;23.00;;;21.48;;
26690;SDS011;14307;51.718;8.938;2023-02-28T03:55:05;23.90;;;21.65;;
26690;SDS011;14307;51.718;8.938;2023-02-28T03:57:40;23.38;;;21.42;;
26690;SDS011;14307;51.718;8.938;2023-02-28T04:00:32;23.55;;;21.98;;
26690;SDS011;14307;51.718;8.938;2023-02-28T04:03:03;22.77;;;21.27;;
26690;SDS011;14307;51.718;8.938;2023-02-28T04:05:30;23.05;;;21.50;;
26690;SDS011;14307;51.718;8.938;2023-02-28T04:08:05;22.30;;;20.67;;
26690;SDS011;14307;51.718;8.938;2023-02-28T04:10:32;21.83;;;20.35;;
26690;SDS011;14307;51.718;8.938;2023-02-28T04:12:59;22.33;;;20.83;;
26690;SDS011;14307;51.718;8.938;2023-02-28T04:15:26;22.05;;;20.63;;
26690;SDS011;14307;51.718;8.938;2023-02-28T04:17:53;22.45;;;20.95;;
26690;SDS011;14307;51.718;8.938;2023-02-28T04:20:20;22.98;;;21.48;;
26690;SDS011;14307;51.718;8.938;2023-02-28T04:22:46;22.55;;;20.90;;
26690;SDS011;14307;51.718;8.938;2023-02-28T04:25:13;22.35;;;20.88;;
26690;SDS011;14307;51.718;8.938;2023-02-28T04:27:40;23.00;;;21.42;;
26690;SDS011;14307;51.718;8.938;2023-02-28T04:30:07;22.13;;;20.73;;
26690;SDS011;14307;51.718;8.938;2023-02-28T04:32:34;22.50;;;21.10;;
26690;SDS011;14307;51.718;8.938;2023-02-28T04:35:00;23.70;;;21.88;;
26690;SDS011;14307;51.718;8.938;2023-02-28T04:37:28;23.15;;;21.60;;
26690;SDS011;14307;51.718;8.938;2023-02-28T04:39:55;21.92;;;20.52;;
26690;SDS011;14307;51.718;8.938;2023-02-28T04:42:23;22.60;;;21.00;;
26690;SDS011;14307;51.718;8.938;2023-02-28T04:44:49;22.45;;;20.95;;
26690;SDS011;14307;51.718;8.938;2023-02-28T04:47:16;22.35;;;20.85;;
26690;SDS011;14307;51.718;8.938;2023-02-28T04:49:43;22.90;;;21.40;;
26690;SDS011;14307;51.718;8.938;2023-02-28T04:52:09;22.40;;;20.90;;
26690;SDS011;14307;51.718;8.938;2023-02-28T04:54:36;22.90;;;21.35;;
26690;SDS011;14307;51.718;8.938;2023-02-28T04:57:05;23.05;;;21.65;;
26690;SDS011;14307;51.718;8.938;2023-02-28T04:59:31;22.38;;;20.88;;
26690;SDS011;14307;51.718;8.938;2023-02-28T05:01:58;23.02;;;21.35;;
26690;SDS011;14307;51.718;8.938;2023-02-28T05:04:25;22.58;;;21.08;;
26690;SDS011;14307;51.718;8.938;2023-02-28T05:06:52;22.85;;;21.02;;
26690;SDS011;14307;51.718;8.938;2023-02-28T05:09:18;22.90;;;21.13;;
26690;SDS011;14307;51.718;8.938;2023-02-28T05:11:45;22.02;;;20.63;;
26690;SDS011;14307;51.718;8.938;2023-02-28T05:14:13;22.10;;;20.70;;
26690;SDS011;14307;51.718;8.938;2023-02-28T05:16:40;22.85;;;20.88;;
26690;SDS011;14307;51.718;8.938;2023-02-28T05:19:07;23.98;;;22.35;;
26690;SDS011;14307;51.718;8.938;2023-02-28T05:21:34;23.25;;;21.70;;
26690;SDS011;14307;51.718;8.938;2023-02-28T05:24:09;23.42;;;21.92;;
26690;SDS011;14307;51.718;8.938;2023-02-28T05:26:41;24.40;;;22.60;;
26690;SDS011;14307;51.718;8.938;2023-02-28T05:29:09;23.85;;;22.25;;
26690;SDS011;14307;51.718;8.938;2023-02-28T05:31:36;25.10;;;23.23;;
26690;SDS011;14307;51.718;8.938;2023-02-28T05:34:03;24.98;;;23.27;;
26690;SDS011;14307;51.718;8.938;2023-02-28T05:36:30;24.08;;;22.38;;
26690;SDS011;14307;51.718;8.938;2023-02-28T05:38:57;23.50;;;22.05;;
26690;SDS011;14307;51.718;8.938;2023-02-28T05:41:24;23.67;;;22.10;;
26690;SDS011;14307;51.718;8.938;2023-02-28T05:43:52;23.80;;;22.20;;
26690;SDS011;14307;51.718;8.938;2023-02-28T05:46:19;23.65;;;21.95;;
26690;SDS011;14307;51.718;8.938;2023-02-28T05:48:46;23.20;;;21.73;;
26690;SDS011;14307;51.718;8.938;2023-02-28T05:51:14;24.25;;;22.30;;
26690;SDS011;14307;51.718;8.938;2023-02-28T05:53:41;23.90;;;21.90;;
26690;SDS011;14307;51.718;8.938;2023-02-28T05:56:07;23.08;;;21.48;;
26690;SDS011;14307;51.718;8.938;2023-02-28T05:58:34;24.60;;;22.90;;
26690;SDS011;14307;51.718;8.938;2023-02-28T06:01:18;24.05;;;22.35;;
26690;SDS011;14307;51.718;8.938;2023-02-28T06:03:47;24.50;;;22.50;;
26690;SDS011;14307;51.718;8.938;2023-02-28T06:06:13;25.45;;;23.70;;
26690;SDS011;14307;51.718;8.938;2023-02-28T06:08:40;24.80;;;23.02;;
26690;SDS011;14307;51.718;8.938;2023-02-28T06:11:09;24.38;;;22.63;;
26690;SDS011;14307;51.718;8.938;2023-02-28T06:13:36;24.63;;;22.73;;
26690;SDS011;14307;51.718;8.938;2023-02-28T06:16:02;33.78;;;31.63;;
26690;SDS011;14307;51.718;8.938;2023-02-28T06:18:29;24.00;;;22.40;;
26690;SDS011;14307;51.718;8.938;2023-02-28T06:20:56;24.73;;;22.92;;
26690;SDS011;14307;51.718;8.938;2023-02-28T06:23:22;24.15;;;22.35;;
26690;SDS011;14307;51.718;8.938;2023-02-28T06:25:49;24.30;;;22.48;;
26690;SDS011;14307;51.718;8.938;2023-02-28T06:28:16;29.75;;;27.65;;
26690;SDS011;14307;51.718;8.938;2023-02-28T06:30:42;30.13;;;27.85;;
26690;SDS011;14307;51.718;8.938;2023-02-28T06:33:11;28.67;;;26.75;;
26690;SDS011;14307;51.718;8.938;2023-02-28T06:35:38;28.08;;;26.38;;
26690;SDS011;14307;51.718;8.938;2023-02-28T06:38:05;33.33;;;31.13;;
26690;SDS011;14307;51.718;8.938;2023-02-28T06:40:31;32.75;;;30.85;;
26690;SDS011;14307;51.718;8.938;2023-02-28T06:43:01;33.17;;;31.20;;
26690;SDS011;14307;51.718;8.938;2023-02-28T06:45:28;33.58;;;31.45;;
26690;SDS011;14307;51.718;8.938;2023-02-28T06:47:54;34.08;;;31.92;;
26690;SDS011;14307;51.718;8.938;2023-02-28T06:50:21;33.67;;;31.52;;
26690;SDS011;14307;51.718;8.938;2023-02-28T06:52:48;32.80;;;30.80;;
26690;SDS011;14307;51.718;8.938;2023-02-28T06:55:19;32.97;;;30.77;;
26690;SDS011;14307;51.718;8.938;2023-02-28T06:57:46;31.55;;;29.65;;
26690;SDS011;14307;51.718;8.938;2023-02-28T07:00:13;32.15;;;30.15;;
26690;SDS011;14307;51.718;8.938;2023-02-28T07:02:40;30.88;;;29.08;;
26690;SDS011;14307;51.718;8.938;2023-02-28T07:05:07;31.38;;;29.35;;
26690;SDS011;14307;51.718;8.938;2023-02-28T07:07:34;31.70;;;29.65;;
26690;SDS011;14307;51.718;8.938;2023-02-28T07:10:03;30.63;;;28.73;;
26690;SDS011;14307;51.718;8.938;2023-02-28T07:12:30;32.72;;;30.33;;
26690;SDS011;14307;51.718;8.938;2023-02-28T07:14:56;30.88;;;28.98;;
26690;SDS011;14307;51.718;8.938;2023-02-28T07:17:23;31.88;;;29.67;;
26690;SDS011;14307;51.718;8.938;2023-02-28T07:19:50;30.83;;;28.95;;
26690;SDS011;14307;51.718;8.938;2023-02-28T07:22:16;31.15;;;29.33;;
26690;SDS011;14307;51.718;8.938;2023-02-28T07:24:43;30.30;;;28.42;;
26690;SDS011;14307;51.718;8.938;2023-02-28T07:27:10;30.52;;;28.73;;
26690;SDS011;14307;51.718;8.938;2023-02-28T07:29:37;31.42;;;29.52;;
26690;SDS011;14307;51.718;8.938;2023-02-28T07:32:04;31.73;;;29.73;;
26690;SDS011;14307;51.718;8.938;2023-02-28T07:34:31;31.92;;;30.02;;
26690;SDS011;14307;51.718;8.938;2023-02-28T07:36:57;31.60;;;29.58;;
26690;SDS011;14307;51.718;8.938;2023-02-28T07:39:24;31.20;;;29.27;;
26690;SDS011;14307;51.718;8.938;2023-02-28T07:41:50;31.15;;;29.23;;
26690;SDS011;14307;51.718;8.938;2023-02-28T07:44:17;31.73;;;29.83;;
26690;SDS011;14307;51.718;8.938;2023-02-28T07:46:44;31.85;;;29.75;;
26690;SDS011;14307;51.718;8.938;2023-02-28T07:49:11;33.63;;;31.50;;
26690;SDS011;14307;51.718;8.938;2023-02-28T07:51:37;34.35;;;32.15;;
26690;SDS011;14307;51.718;8.938;2023-02-28T07:54:04;35.38;;;32.88;;
26690;SDS011;14307;51.718;8.938;2023-02-28T07:56:31;36.92;;;34.38;;
26690;SDS011;14307;51.718;8.938;2023-02-28T07:58:58;34.60;;;32.45;;
26690;SDS011;14307;51.718;8.938;2023-02-28T08:01:25;36.65;;;34.60;;
26690;SDS011;14307;51.718;8.938;2023-02-28T08:03:51;37.97;;;35.67;;
26690;SDS011;14307;51.718;8.938;2023-02-28T08:06:19;37.60;;;35.50;;
26690;SDS011;14307;51.718;8.938;2023-02-28T08:08:48;38.85;;;36.55;;
26690;SDS011;14307;51.718;8.938;2023-02-28T08:11:15;38.35;;;36.35;;
26690;SDS011;14307;51.718;8.938;2023-02-28T08:13:43;38.08;;;35.85;;
26690;SDS011;14307;51.718;8.938;2023-02-28T08:16:11;34.17;;;32.00;;
26690;SDS011;14307;51.718;8.938;2023-02-28T08:18:43;34.25;;;32.25;;
26690;SDS011;14307;51.718;8.938;2023-02-28T08:21:10;34.20;;;32.08;;
26690;SDS011;14307;51.718;8.938;2023-02-28T08:23:37;34.72;;;32.58;;
26690;SDS011;14307;51.718;8.938;2023-02-28T08:26:04;35.53;;;33.42;;
26690;SDS011;14307;51.718;8.938;2023-02-28T08:28:31;34.08;;;31.85;;
26690;SDS011;14307;51.718;8.938;2023-02-28T08:30:58;32.75;;;30.65;;
26690;SDS011;14307;51.718;8.938;2023-02-28T08:33:25;32.88;;;30.88;;
26690;SDS011;14307;51.718;8.938;2023-02-28T08:35:54;32.35;;;30.23;;
26690;SDS011;14307;51.718;8.938;2023-02-28T08:38:22;34.38;;;32.10;;
26690;SDS011;14307;51.718;8.938;2023-02-28T08:40:49;31.58;;;29.38;;
26690;SDS011;14307;51.718;8.938;2023-02-28T08:43:22;34.40;;;32.20;;
26690;SDS011;14307;51.718;8.938;2023-02-28T08:45:51;31.73;;;29.30;;
26690;SDS011;14307;51.718;8.938;2023-02-28T08:48:18;35.70;;;33.22;;
26690;SDS011;14307;51.718;8.938;2023-02-28T08:50:54;32.35;;;30.25;;
26690;SDS011;14307;51.718;8.938;2023-02-28T08:53:33;32.67;;;30.60;;
26690;SDS011;14307;51.718;8.938;2023-02-28T08:56:01;33.72;;;31.63;;
26690;SDS011;14307;51.718;8.938;2023-02-28T08:58:29;35.42;;;33.22;;
26690;SDS011;14307;51.718;8.938;2023-02-28T09:00:56;30.30;;;28.40;;
26690;SDS011;14307;51.718;8.938;2023-02-28T09:03:23;30.85;;;28.67;;
26690;SDS011;14307;51.718;8.938;2023-02-28T09:06:00;31.05;;;28.95;;
26690;SDS011;14307;51.718;8.938;2023-02-28T09:08:27;30.52;;;28.52;;
26690;SDS011;14307;51.718;8.938;2023-02-28T09:10:56;30.58;;;28.58;;
26690;SDS011;14307;51.718;8.938;2023-02-28T09:13:25;31.52;;;29.63;;
26690;SDS011;14307;51.718;8.938;2023-02-28T09:15:52;31.02;;;29.13;;
26690;SDS011;14307;51.718;8.938;2023-02-28T09:18:20;30.00;;;28.13;;
26690;SDS011;14307;51.718;8.938;2023-02-28T09:20:47;31.10;;;28.73;;
26690;SDS011;14307;51.718;8.938;2023-02-28T09:23:13;31.80;;;29.90;;
26690;SDS011;14307;51.718;8.938;2023-02-28T09:25:50;31.27;;;29.33;;
26690;SDS011;14307;51.718;8.938;2023-02-28T09:28:19;31.17;;;29.13;;
26690;SDS011;14307;51.718;8.938;2023-02-28T09:30:51;32.67;;;30.35;;
26690;SDS011;14307;51.718;8.938;2023-02-28T09:33:19;31.30;;;29.20;;
26690;SDS011;14307;51.718;8.938;2023-02-28T09:35:48;32.75;;;30.58;;
26690;SDS011;14307;51.718;8.938;2023-02-28T09:38:15;32.40;;;29.92;;
26690;SDS011;14307;51.718;8.938;2023-02-28T09:40:53;34.25;;;31.60;;
26690;SDS011;14307;51.718;8.938;2023-02-28T09:43:29;32.60;;;30.40;;
26690;SDS011;14307;51.718;8.938;2023-02-28T09:51:43;36.28;;;33.70;;
26690;SDS011;14307;51.718;8.938;2023-02-28T09:54:23;38.40;;;35.92;;
26690;SDS011;14307;51.718;8.938;2023-02-28T09:56:53;39.72;;;37.08;;
26690;SDS011;14307;51.718;8.938;2023-02-28T10:00:30;33.67;;;31.45;;
26690;SDS011;14307;51.718;8.938;2023-02-28T10:05:39;35.95;;;32.97;;
26690;SDS011;14307;51.718;8.938;2023-02-28T10:08:14;37.58;;;35.15;;
26690;SDS011;14307;51.718;8.938;2023-02-28T10:10:48;38.15;;;35.75;;
26690;SDS011;14307;51.718;8.938;2023-02-28T10:13:24;37.30;;;34.80;;
26690;SDS011;14307;51.718;8.938;2023-02-28T10:15:55;39.90;;;37.25;;
26690;SDS011;14307;51.718;8.938;2023-02-28T10:22:29;38.70;;;36.30;;
26690;SDS011;14307;51.718;8.938;2023-02-28T10:25:05;40.63;;;37.85;;
26690;SDS011;14307;51.718;8.938;2023-02-28T10:27:42;36.15;;;33.67;;
26690;SDS011;14307;51.718;8.938;2023-02-28T10:30:10;41.22;;;38.67;;
26690;SDS011;14307;51.718;8.938;2023-02-28T10:32:40;39.63;;;37.22;;
26690;SDS011;14307;51.718;8.938;2023-02-28T10:35:15;36.00;;;33.58;;
26690;SDS011;14307;51.718;8.938;2023-02-28T10:37:46;39.35;;;37.03;;
26690;SDS011;14307;51.718;8.938;2023-02-28T10:43:18;38.65;;;36.15;;
26690;SDS011;14307;51.718;8.938;2023-02-28T10:56:04;37.60;;;34.95;;
26690;SDS011;14307;51.718;8.938;2023-02-28T11:06:56;40.03;;;37.55;;
26690;SDS011;14307;51.718;8.938;2023-02-28T11:09:29;39.20;;;36.95;;
26690;SDS011;14307;51.718;8.938;2023-02-28T11:12:02;37.40;;;35.10;;
26690;SDS011;14307;51.718;8.938;2023-02-28T11:14:31;39.03;;;36.72;;
26690;SDS011;14307;51.718;8.938;2023-02-28T11:17:18;36.90;;;34.80;;
26690;SDS011;14307;51.718;8.938;2023-02-28T11:19:48;39.72;;;37.08;;
26690;SDS011;14307;51.718;8.938;2023-02-28T11:22:19;39.95;;;37.58;;
26690;SDS011;14307;51.718;8.938;2023-02-28T11:24:50;39.38;;;37.00;;
26690;SDS011;14307;51.718;8.938;2023-02-28T11:27:25;37.83;;;35.42;;
26690;SDS011;14307;51.718;8.938;2023-02-28T11:29:51;40.17;;;37.88;;
26690;SDS011;14307;51.718;8.938;2023-02-28T11:32:22;35.97;;;33.75;;
26690;SDS011;14307;51.718;8.938;2023-02-28T11:37:40;40.85;;;38.28;;
26690;SDS011;14307;51.718;8.938;2023-02-28T11:40:14;41.15;;;38.55;;
26690;SDS011;14307;51.718;8.938;2023-02-28T11:45:40;40.40;;;37.80;;
26690;SDS011;14307;51.718;8.938;2023-02-28T11:48:21;40.63;;;38.08;;
26690;SDS011;14307;51.718;8.938;2023-02-28T11:53:35;41.67;;;39.28;;
26690;SDS011;14307;51.718;8.938;2023-02-28T11:56:38;39.65;;;37.15;;
26690;SDS011;14307;51.718;8.938;2023-02-28T11:59:15;40.03;;;37.72;;
26690;SDS011;14307;51.718;8.938;2023-02-28T12:05:21;37.15;;;34.72;;
26690;SDS011;14307;51.718;8.938;2023-02-28T12:08:21;35.47;;;33.17;;
26690;SDS011;14307;51.718;8.938;2023-02-28T12:10:57;36.42;;;34.03;;
26690;SDS011;14307;51.718;8.938;2023-02-28T12:19:48;36.78;;;34.67;;
26690;SDS011;14307;51.718;8.938;2023-02-28T12:22:43;34.53;;;31.90;;
26690;SDS011;14307;51.718;8.938;2023-02-28T12:27:47;36.78;;;34.50;;
26690;SDS011;14307;51.718;8.938;2023-02-28T12:30:17;33.45;;;31.17;;
26690;SDS011;14307;51.718;8.938;2023-02-28T12:32:49;37.30;;;35.00;;
26690;SDS011;14307;51.718;8.938;2023-02-28T12:35:22;35.17;;;32.95;;
26690;SDS011;14307;51.718;8.938;2023-02-28T12:38:10;34.78;;;32.38;;
26690;SDS011;14307;51.718;8.938;2023-02-28T12:40:56;36.15;;;33.88;;
26690;SDS011;14307;51.718;8.938;2023-02-28T12:43:40;37.47;;;35.25;;
26690;SDS011;14307;51.718;8.938;2023-02-28T12:46:16;39.17;;;36.75;;
26690;SDS011;14307;51.718;8.938;2023-02-28T12:48:50;39.47;;;36.88;;
26690;SDS011;14307;51.718;8.938;2023-02-28T12:51:19;39.75;;;37.25;;
26690;SDS011;14307;51.718;8.938;2023-02-28T12:53:49;40.58;;;38.00;;
26690;SDS011;14307;51.718;8.938;2023-02-28T12:56:35;38.00;;;35.85;;
26690;SDS011;14307;51.718;8.938;2023-02-28T12:59:14;37.30;;;35.00;;
26690;SDS011;14307;51.718;8.938;2023-02-28T13:01:49;39.50;;;37.17;;
26690;SDS011;14307;51.718;8.938;2023-02-28T13:04:32;40.33;;;37.83;;
26690;SDS011;14307;51.718;8.938;2023-02-28T13:09:50;42.67;;;40.08;;
26690;SDS011;14307;51.718;8.938;2023-02-28T13:12:22;41.15;;;38.58;;
26690;SDS011;14307;51.718;8.938;2023-02-28T13:14:50;39.95;;;37.47;;
26690;SDS011;14307;51.718;8.938;2023-02-28T13:17:26;40.70;;;38.33;;
26690;SDS011;14307;51.718;8.938;2023-02-28T13:22:37;42.95;;;40.08;;
26690;SDS011;14307;51.718;8.938;2023-02-28T13:27:54;35.95;;;33.65;;
26690;SDS011;14307;51.718;8.938;2023-02-28T13:38:40;34.72;;;32.33;;
26690;SDS011;14307;51.718;8.938;2023-02-28T13:49:20;39.70;;;37.20;;
26690;SDS011;14307;51.718;8.938;2023-02-28T13:54:39;39.60;;;37.00;;
26690;SDS011;14307;51.718;8.938;2023-02-28T14:05:37;41.13;;;38.45;;
26690;SDS011;14307;51.718;8.938;2023-02-28T14:08:10;41.92;;;39.22;;
26690;SDS011;14307;51.718;8.938;2023-02-28T14:10:49;41.90;;;39.20;;
26690;SDS011;14307;51.718;8.938;2023-02-28T14:13:42;41.28;;;38.72;;
26690;SDS011;14307;51.718;8.938;2023-02-28T14:16:20;42.28;;;39.67;;
26690;SDS011;14307;51.718;8.938;2023-02-28T14:21:27;39.90;;;37.35;;
26690;SDS011;14307;51.718;8.938;2023-02-28T14:29:34;40.78;;;38.20;;
26690;SDS011;14307;51.718;8.938;2023-02-28T14:32:17;39.60;;;37.10;;
26690;SDS011;14307;51.718;8.938;2023-02-28T14:34:53;41.13;;;38.40;;
26690;SDS011;14307;51.718;8.938;2023-02-28T14:37:29;39.70;;;36.95;;
26690;SDS011;14307;51.718;8.938;2023-02-28T14:39:59;39.97;;;37.38;;
26690;SDS011;14307;51.718;8.938;2023-02-28T14:42:37;39.53;;;37.03;;
26690;SDS011;14307;51.718;8.938;2023-02-28T14:45:17;39.65;;;37.00;;
26690;SDS011;14307;51.718;8.938;2023-02-28T14:47:46;39.33;;;36.80;;
26690;SDS011;14307;51.718;8.938;2023-02-28T14:50:22;39.85;;;37.25;;
26690;SDS011;14307;51.718;8.938;2023-02-28T14:55:36;40.22;;;37.65;;
26690;SDS011;14307;51.718;8.938;2023-02-28T14:58:04;40.97;;;38.13;;
26690;SDS011;14307;51.718;8.938;2023-02-28T15:00:35;40.40;;;37.70;;
26690;SDS011;14307;51.718;8.938;2023-02-28T15:05:52;39.58;;;36.97;;
26690;SDS011;14307;51.718;8.938;2023-02-28T15:08:24;40.22;;;37.60;;
26690;SDS011;14307;51.718;8.938;2023-02-28T15:10:55;39.95;;;37.30;;
26690;SDS011;14307;51.718;8.938;2023-02-28T15:13:26;40.05;;;37.28;;
26690;SDS011;14307;51.718;8.938;2023-02-28T15:18:51;39.45;;;36.95;;
26690;SDS011;14307;51.718;8.938;2023-02-28T15:21:22;40.08;;;37.58;;
26690;SDS011;14307;51.718;8.938;2023-02-28T15:23:59;40.67;;;37.72;;
26690;SDS011;14307;51.718;8.938;2023-02-28T15:26:39;38.72;;;36.13;;
26690;SDS011;14307;51.718;8.938;2023-02-28T15:29:11;39.63;;;37.03;;
26690;SDS011;14307;51.718;8.938;2023-02-28T15:31:45;39.50;;;36.90;;
26690;SDS011;14307;51.718;8.938;2023-02-28T15:39:57;40.17;;;37.47;;
26690;SDS011;14307;51.718;8.938;2023-02-28T15:42:31;41.35;;;38.35;;
26690;SDS011;14307;51.718;8.938;2023-02-28T15:44:57;40.17;;;37.08;;
26690;SDS011;14307;51.718;8.938;2023-02-28T15:47:26;39.92;;;37.42;;
26690;SDS011;14307;51.718;8.938;2023-02-28T15:52:28;41.67;;;38.97;;
26690;SDS011;14307;51.718;8.938;2023-02-28T15:55:20;42.92;;;40.38;;
26690;SDS011;14307;51.718;8.938;2023-02-28T15:57:54;44.78;;;41.95;;
26690;SDS011;14307;51.718;8.938;2023-02-28T16:00:25;43.65;;;40.85;;
26690;SDS011;14307;51.718;8.938;2023-02-28T16:02:53;45.53;;;42.53;;
26690;SDS011;14307;51.718;8.938;2023-02-28T16:05:29;45.47;;;42.67;;
26690;SDS011;14307;51.718;8.938;2023-02-28T16:08:06;44.90;;;42.20;;
26690;SDS011;14307;51.718;8.938;2023-02-28T16:10:39;46.30;;;43.40;;
26690;SDS011;14307;51.718;8.938;2023-02-28T16:13:06;42.60;;;39.70;;
26690;SDS011;14307;51.718;8.938;2023-02-28T16:15:38;40.38;;;37.53;;
26690;SDS011;14307;51.718;8.938;2023-02-28T16:18:10;42.63;;;40.03;;
26690;SDS011;14307;51.718;8.938;2023-02-28T16:20:37;46.72;;;43.22;;
26690;SDS011;14307;51.718;8.938;2023-02-28T16:23:04;44.55;;;41.65;;
26690;SDS011;14307;51.718;8.938;2023-02-28T16:25:35;50.50;;;47.35;;
26690;SDS011;14307;51.718;8.938;2023-02-28T16:28:08;45.90;;;43.10;;
26690;SDS011;14307;51.718;8.938;2023-02-28T16:30:43;44.25;;;41.38;;
26690;SDS011;14307;51.718;8.938;2023-02-28T16:33:10;40.05;;;37.53;;
26690;SDS011;14307;51.718;8.938;2023-02-28T16:35:37;38.58;;;36.05;;
26690;SDS011;14307;51.718;8.938;2023-02-28T16:38:04;38.38;;;35.78;;
26690;SDS011;14307;51.718;8.938;2023-02-28T16:40:33;37.40;;;34.90;;
26690;SDS011;14307;51.718;8.938;2023-02-28T16:43:01;37.15;;;34.75;;
26690;SDS011;14307;51.718;8.938;2023-02-28T16:45:33;38.42;;;35.85;;
26690;SDS011;14307;51.718;8.938;2023-02-28T16:48:00;37.75;;;34.83;;
26690;SDS011;14307;51.718;8.938;2023-02-28T16:50:27;38.95;;;35.90;;
26690;SDS011;14307;51.718;8.938;2023-02-28T16:52:55;39.90;;;37.10;;
26690;SDS011;14307;51.718;8.938;2023-02-28T16:55:23;41.80;;;38.50;;
26690;SDS011;14307;51.718;8.938;2023-02-28T16:57:55;39.85;;;37.22;;
26690;SDS011;14307;51.718;8.938;2023-02-28T17:00:24;28.67;;;26.48;;